Time;durP1;ratioP1;P1;durP2;ratioP2;P2;SDS_P1;SDS_P2;PMS_P1;PMS_P2;Temp;Humidity;BMP_temperature;BMP_pressure;BME280_temperature;BME280_humidity;BME280_pressure;Samples;Min_cycle;Max_cycle;Signal;HPM_P1;HPM_P2
2023/11/21 00:00:20;;;;;;;;;;;;;;;6.48;77.48;99249.66;4987356;28;19929;-73
2023/11/21 00:02:46;;;;;;;;;;;;;;;6.64;77.42;99262.06;4990261;28;19921;-73
2023/11/21 00:05:13;;;;;;;;;;;;;;;6.45;77.92;99262.22;4983062;28;19981;-74
2023/11/21 00:07:39;;;;;;;;;;;;;;;6.91;76.74;99262.28;4977529;28;19997;-73
2023/11/21 00:10:05;;;;;;;;;;;;;;;6.63;77.06;99248.47;4989409;28;20400;-74
2023/11/21 00:12:31;;;;;;;;;;;;;;;6.44;77.84;99250.25;4979441;28;19922;-74
2023/11/21 00:14:56;;;;;;;;;;;;;;;6.27;77.66;99250.91;4990574;28;20021;-73
2023/11/21 00:17:22;;;;;;;;;;;;;;;6.10;79.20;99250.75;4975067;28;19914;-73
2023/11/21 00:19:47;;;;;;;;;;;;;;;6.41;77.98;99248.13;4976466;28;19926;-74
2023/11/21 00:22:12;;;;;;;;;;;;;;;6.71;76.70;99239.38;4994386;28;20005;-73
2023/11/21 00:24:38;;;;;;;;;;;;;;;6.73;76.82;99240.72;4993534;28;20360;-74
2023/11/21 00:27:03;;;;;;;;;;;;;;;6.88;76.46;99238.69;4993591;28;19964;-73
2023/11/21 00:29:28;;;;;;;;;;;;;;;7.09;75.43;99239.00;4993848;28;19941;-73
2023/11/21 00:31:54;;;;;;;;;;;;;;;7.11;75.40;99233.94;4976237;28;20448;-74
2023/11/21 00:34:19;;;;;;;;;;;;;;;7.15;75.12;99231.34;4993518;28;19918;-73
2023/11/21 00:36:45;;;;;;;;;;;;;;;6.54;76.01;99240.06;4975766;28;19925;-73
2023/11/21 00:39:11;;;;;;;;;;;;;;;6.30;76.94;99238.38;4974796;28;19914;-74
2023/11/21 00:41:37;;;;;;;;;;;;;;;6.48;77.31;99238.56;4977499;28;20409;-73
2023/11/21 00:44:02;;;;;;;;;;;;;;;6.71;76.44;99233.81;4992408;28;19956;-73
2023/11/21 00:46:28;;;;;;;;;;;;;;;6.29;77.46;99245.06;4977174;28;19923;-73
2023/11/21 00:48:54;;;;;;;;;;;;;;;6.14;78.19;99243.44;4974548;28;19921;-73
2023/11/21 00:51:20;;;;;;;;;;;;;;;6.04;79.12;99242.53;4974295;28;19923;-73
2023/11/21 00:53:45;;;;;;;;;;;;;;;5.94;79.49;99242.72;4974478;28;20068;-73
2023/11/21 00:56:11;;;;;;;;;;;;;;;5.98;79.50;99240.97;4980227;28;20692;-73
2023/11/21 00:58:37;;;;;;;;;;;;;;;5.85;80.66;99242.63;4992453;28;19914;-73
2023/11/21 01:01:03;;;;;;;;;;;;;;;5.87;80.06;99239.53;4980286;28;19925;-73
2023/11/21 01:03:28;;;;;;;;;;;;;;;5.82;80.90;99240.44;4975548;28;19996;-74
2023/11/21 01:05:54;;;;;;;;;;;;;;;5.75;81.65;99243.63;4992694;28;20017;-73
2023/11/21 01:08:20;;;;;;;;;;;;;;;5.54;81.62;99243.22;4993765;28;19918;-74
2023/11/21 01:10:45;;;;;;;;;;;;;;;5.43;82.35;99244.56;4990777;28;20423;-73
2023/11/21 01:13:10;;;;;;;;;;;;;;;5.40;81.74;99231.31;4993452;28;19938;-73
2023/11/21 01:15:36;;;;;;;;;;;;;;;5.16;83.01;99232.28;4992719;28;19914;-73
2023/11/21 01:18:01;;;;;;;;;;;;;;;5.09;83.77;99238.22;4991766;28;19921;-73
2023/11/21 01:20:26;;;;;;;;;;;;;;;5.03;84.55;99240.25;4993750;28;19918;-74
2023/11/21 01:22:53;;;;;;;;;;;;;;;5.03;84.98;99234.72;4992019;28;19972;-73
2023/11/21 01:25:19;;;;;;;;;;;;;;;5.03;85.39;99229.19;4992956;28;19937;-73
2023/11/21 01:27:44;;;;;;;;;;;;;;;5.16;84.64;99233.09;4993206;28;19914;-73
2023/11/21 01:30:12;;;;;;;;;;;;;;;5.23;84.73;99231.88;4993133;28;19975;-73
2023/11/21 01:32:38;;;;;;;;;;;;;;;5.18;84.79;99225.28;4992808;28;19928;-74
2023/11/21 01:35:06;;;;;;;;;;;;;;;5.19;85.05;99228.91;4988770;28;19918;-73
2023/11/21 01:37:31;;;;;;;;;;;;;;;5.41;84.98;99219.88;4991825;28;19921;-73
2023/11/21 01:39:56;;;;;;;;;;;;;;;5.56;83.75;99223.50;4993155;28;19914;-74
2023/11/21 01:42:22;;;;;;;;;;;;;;;5.70;82.91;99224.34;4992221;28;20408;-73
2023/11/21 01:44:48;;;;;;;;;;;;;;;5.68;82.89;99215.50;4992492;28;19924;-73
2023/11/21 01:47:13;;;;;;;;;;;;;;;5.59;83.38;99211.78;4992943;28;19965;-73
2023/11/21 01:49:39;;;;;;;;;;;;;;;5.41;83.94;99214.34;4981831;28;19918;-74
2023/11/21 01:52:06;;;;;;;;;;;;;;;5.54;83.67;99222.97;4972143;28;19918;-73
2023/11/21 01:54:32;;;;;;;;;;;;;;;5.21;84.40;99218.31;4977842;28;19922;-73
2023/11/21 01:57:06;;;;;;;;;;;;;;;5.23;85.03;99221.59;4990413;28;19922;-74
2023/11/21 01:59:36;;;;;;;;;;;;;;;5.03;84.80;99214.47;4991403;28;20012;-74
2023/11/21 02:02:02;;;;;;;;;;;;;;;4.76;85.64;99216.84;4991905;28;19921;-73
2023/11/21 02:04:27;;;;;;;;;;;;;;;4.49;87.74;99209.28;4990673;28;20323;-73
2023/11/21 02:06:54;;;;;;;;;;;;;;;4.49;88.03;99214.81;4987487;28;20432;-73
2023/11/21 02:09:24;;;;;;;;;;;;;;;4.48;88.16;99218.72;4973133;28;19946;-73
2023/11/21 02:11:49;;;;;;;;;;;;;;;4.86;88.03;99217.81;4973123;28;19925;-74
2023/11/21 02:14:15;;;;;;;;;;;;;;;4.80;86.31;99211.53;4978184;28;19918;-73
2023/11/21 02:16:40;;;;;;;;;;;;;;;4.62;87.68;99205.75;4992155;28;19920;-74
2023/11/21 02:19:09;;;;;;;;;;;;;;;4.59;87.75;99198.03;4991091;28;19921;-74
2023/11/21 02:21:36;;;;;;;;;;;;;;;4.76;87.86;99204.97;4991512;28;19926;-73
2023/11/21 02:24:01;;;;;;;;;;;;;;;4.65;87.53;99207.09;4990066;28;19921;-74
2023/11/21 02:26:27;;;;;;;;;;;;;;;4.60;88.25;99205.22;4992181;28;19918;-73
2023/11/21 02:28:53;;;;;;;;;;;;;;;4.56;88.66;99208.88;4992381;28;19914;-73
2023/11/21 02:31:18;;;;;;;;;;;;;;;4.73;88.76;99209.16;4991600;28;19944;-73
2023/11/21 02:33:44;;;;;;;;;;;;;;;4.95;87.33;99210.47;4990772;28;20468;-73
2023/11/21 02:36:09;;;;;;;;;;;;;;;5.23;86.14;99212.47;4992294;28;20017;-73
2023/11/21 02:38:34;;;;;;;;;;;;;;;5.45;84.70;99209.84;4991498;28;20363;-73
2023/11/21 02:41:00;;;;;;;;;;;;;;;5.52;83.53;99205.81;4987673;28;19914;-74
2023/11/21 02:43:25;;;;;;;;;;;;;;;5.36;83.52;99214.44;4972726;28;19914;-73
2023/11/21 02:45:50;;;;;;;;;;;;;;;5.36;83.33;99220.00;4989450;28;19922;-74
2023/11/21 02:48:15;;;;;;;;;;;;;;;4.79;86.36;99218.19;4992301;28;19956;-73
2023/11/21 02:50:42;;;;;;;;;;;;;;;4.37;89.52;99214.44;4991835;28;19926;-74
2023/11/21 02:53:08;;;;;;;;;;;;;;;4.46;90.58;99229.25;4992206;28;19918;-73
2023/11/21 02:55:36;;;;;;;;;;;;;;;4.33;90.04;99225.28;4986882;28;20042;-74
2023/11/21 02:58:01;;;;;;;;;;;;;;;4.05;91.83;99217.63;4972807;28;20315;-73
2023/11/21 03:00:27;;;;;;;;;;;;;;;4.13;91.72;99220.88;4988376;28;19918;-73
2023/11/21 03:02:53;;;;;;;;;;;;;;;4.29;91.50;99222.28;4991688;28;20388;-73
2023/11/21 03:05:18;;;;;;;;;;;;;;;4.52;90.29;99230.00;4990766;28;19968;-73
2023/11/21 03:07:43;;;;;;;;;;;;;;;4.72;89.48;99224.13;4992031;28;19940;-73
2023/11/21 03:10:09;;;;;;;;;;;;;;;4.64;89.60;99228.41;4994401;28;20024;-73
2023/11/21 03:12:34;;;;;;;;;;;;;;;4.84;88.39;99228.38;4992184;28;19934;-73
2023/11/21 03:14:59;;;;;;;;;;;;;;;4.75;88.80;99234.59;5005414;28;20286;-73
2023/11/21 03:17:25;;;;;;;;;;;;;;;4.91;87.20;99232.41;4995735;28;20360;-73
2023/11/21 03:19:52;;;;;;;;;;;;;;;4.72;88.63;99229.69;4993660;28;19964;-73
2023/11/21 03:22:17;;;;;;;;;;;;;;;4.56;87.41;99231.84;4994318;28;19914;-74
2023/11/21 03:24:42;;;;;;;;;;;;;;;4.31;89.79;99227.53;4995604;28;19985;-74
2023/11/21 03:27:08;;;;;;;;;;;;;;;4.25;90.40;99228.72;4993546;28;19917;-74
2023/11/21 03:29:33;;;;;;;;;;;;;;;4.42;89.17;99225.44;4979461;28;20004;-74
2023/11/21 03:31:58;;;;;;;;;;;;;;;4.55;89.14;99229.41;4975920;28;19919;-74
2023/11/21 03:34:26;;;;;;;;;;;;;;;4.46;89.04;99230.06;4982815;28;19921;-73
2023/11/21 03:36:52;;;;;;;;;;;;;;;4.72;88.59;99232.44;4995395;28;19960;-74
2023/11/21 03:39:17;;;;;;;;;;;;;;;4.92;86.92;99227.69;4994060;28;19918;-74
2023/11/21 03:41:42;;;;;;;;;;;;;;;4.98;86.95;99232.03;4995277;28;20393;-73
2023/11/21 03:44:08;;;;;;;;;;;;;;;4.98;85.62;99245.06;4995237;28;19914;-73
2023/11/21 03:46:33;;;;;;;;;;;;;;;5.13;85.49;99241.19;4989815;28;19929;-73
2023/11/21 03:48:58;;;;;;;;;;;;;;;5.26;84.51;99256.22;4993635;28;20036;-74
2023/11/21 03:51:24;;;;;;;;;;;;;;;5.39;83.94;99252.66;4994974;28;19922;-74
2023/11/21 03:53:49;;;;;;;;;;;;;;;5.41;83.94;99258.72;4994354;28;19921;-74
2023/11/21 03:56:14;;;;;;;;;;;;;;;5.52;83.12;99262.13;4994898;28;19969;-74
2023/11/21 03:58:39;;;;;;;;;;;;;;;5.64;82.55;99255.28;4995081;28;19918;-74
2023/11/21 04:01:05;;;;;;;;;;;;;;;5.61;82.93;99254.75;4990446;28;19964;-74
2023/11/21 04:03:30;;;;;;;;;;;;;;;5.56;82.14;99262.34;4975023;28;19973;-74
2023/11/21 04:05:55;;;;;;;;;;;;;;;5.51;82.56;99256.88;4994759;28;19974;-74
2023/11/21 04:08:21;;;;;;;;;;;;;;;5.45;83.65;99250.59;4992657;28;19928;-74
2023/11/21 04:10:46;;;;;;;;;;;;;;;5.40;83.57;99247.94;4990287;28;20317;-74
2023/11/21 04:13:12;;;;;;;;;;;;;;;5.43;83.13;99245.38;4988163;28;20001;-74
2023/11/21 04:15:37;;;;;;;;;;;;;;;5.51;83.20;99259.66;4994646;28;20001;-73
2023/11/21 04:18:02;;;;;;;;;;;;;;;5.57;83.09;99241.81;4993331;28;19980;-74
2023/11/21 04:20:28;;;;;;;;;;;;;;;5.53;82.48;99251.84;4992830;28;19933;-74
2023/11/21 04:22:53;;;;;;;;;;;;;;;5.55;83.26;99253.19;4993392;28;20392;-74
2023/11/21 04:25:19;;;;;;;;;;;;;;;5.52;83.17;99261.31;4993205;28;20007;-74
2023/11/21 04:27:45;;;;;;;;;;;;;;;5.61;82.43;99265.84;4985947;28;20012;-74
2023/11/21 04:30:11;;;;;;;;;;;;;;;5.58;82.81;99276.75;4993366;28;19926;-74
2023/11/21 04:32:36;;;;;;;;;;;;;;;5.48;82.86;99272.19;4994388;28;19918;-74
2023/11/21 04:35:01;;;;;;;;;;;;;;;5.44;82.58;99276.72;4993900;28;19922;-74
2023/11/21 04:37:27;;;;;;;;;;;;;;;5.32;83.02;99266.94;4993346;28;20061;-74
2023/11/21 04:39:52;;;;;;;;;;;;;;;4.99;85.34;99266.13;4994248;28;19921;-74
2023/11/21 04:42:18;;;;;;;;;;;;;;;5.10;85.07;99253.72;4993896;28;20008;-74
2023/11/21 04:44:44;;;;;;;;;;;;;;;5.15;85.51;99259.19;4992976;28;20277;-74
2023/11/21 04:47:09;;;;;;;;;;;;;;;5.26;85.51;99254.28;4974950;28;19944;-74
2023/11/21 04:49:35;;;;;;;;;;;;;;;5.38;84.71;99262.09;4973590;28;19914;-74
2023/11/21 04:52:01;;;;;;;;;;;;;;;5.43;84.66;99258.41;4981775;28;19968;-74
2023/11/21 04:54:26;;;;;;;;;;;;;;;5.31;85.09;99253.38;4992598;28;19918;-74
2023/11/21 04:56:52;;;;;;;;;;;;;;;5.31;84.36;99256.16;4993875;28;19972;-74
2023/11/21 04:59:17;;;;;;;;;;;;;;;5.27;84.59;99260.66;4992280;28;19918;-74
2023/11/21 05:01:42;;;;;;;;;;;;;;;5.25;84.29;99260.97;4993737;28;19917;-74
2023/11/21 05:04:08;;;;;;;;;;;;;;;5.26;84.15;99261.78;4991637;28;19921;-74
2023/11/21 05:06:34;;;;;;;;;;;;;;;5.25;84.88;99263.75;4992915;28;20020;-76
2023/11/21 05:08:59;;;;;;;;;;;;;;;5.31;84.36;99264.47;4993733;28;20308;-75
2023/11/21 05:11:28;;;;;;;;;;;;;;;5.20;84.96;99267.44;4993429;28;20367;-77
2023/11/21 05:13:55;;;;;;;;;;;;;;;5.14;84.49;99268.63;4992268;28;19921;-77
2023/11/21 05:16:21;;;;;;;;;;;;;;;5.05;84.49;99268.50;4993039;28;19914;-77
2023/11/21 05:18:47;;;;;;;;;;;;;;;5.12;84.95;99259.78;4984466;28;19972;-77
2023/11/21 05:21:12;;;;;;;;;;;;;;;5.30;83.51;99262.81;4981240;28;19928;-75
2023/11/21 05:23:37;;;;;;;;;;;;;;;4.82;85.55;99272.22;4992365;28;20409;-74
2023/11/21 05:26:03;;;;;;;;;;;;;;;4.78;86.03;99271.97;4992827;28;20332;-75
2023/11/21 05:28:28;;;;;;;;;;;;;;;4.89;85.94;99280.97;4991993;28;19918;-74
2023/11/21 05:30:53;;;;;;;;;;;;;;;4.89;86.01;99284.56;4991985;28;20392;-74
2023/11/21 05:33:19;;;;;;;;;;;;;;;4.95;86.11;99281.69;4992205;28;19976;-75
2023/11/21 05:35:44;;;;;;;;;;;;;;;5.03;85.65;99281.84;4991949;28;20000;-74
2023/11/21 05:38:09;;;;;;;;;;;;;;;5.07;85.60;99279.31;4986080;28;20031;-74
2023/11/21 05:40:35;;;;;;;;;;;;;;;4.84;86.12;99283.81;4989456;28;19992;-74
2023/11/21 05:43:00;;;;;;;;;;;;;;;4.69;86.58;99290.41;4992832;28;19920;-75
2023/11/21 05:45:25;;;;;;;;;;;;;;;4.53;86.79;99287.88;4992794;28;20021;-75
2023/11/21 05:47:50;;;;;;;;;;;;;;;4.66;86.93;99293.78;4991476;28;20400;-75
2023/11/21 05:50:16;;;;;;;;;;;;;;;4.59;87.60;99285.84;4987652;28;20332;-75
2023/11/21 05:52:42;;;;;;;;;;;;;;;4.53;87.34;99287.88;4991134;28;19968;-74
2023/11/21 05:55:08;;;;;;;;;;;;;;;4.66;87.23;99285.47;4992733;28;19914;-75
2023/11/21 05:57:36;;;;;;;;;;;;;;;4.86;86.18;99285.16;4987783;28;20349;-74
2023/11/21 06:00:10;;;;;;;;;;;;;;;4.92;85.62;99277.59;4990413;28;19925;-74
2023/11/21 06:02:35;;;;;;;;;;;;;;;4.71;86.49;99279.88;4986108;28;19918;-74
2023/11/21 06:05:00;;;;;;;;;;;;;;;4.77;87.23;99282.25;4991438;28;19918;-75
2023/11/21 06:07:26;;;;;;;;;;;;;;;4.85;86.10;99277.97;4987738;28;20367;-74
2023/11/21 06:09:51;;;;;;;;;;;;;;;4.96;86.31;99286.94;4973406;28;19925;-74
2023/11/21 06:12:16;;;;;;;;;;;;;;;5.04;86.34;99290.97;4980132;28;19922;-73
2023/11/21 06:14:42;;;;;;;;;;;;;;;5.12;84.86;99295.84;4990655;28;19976;-73
2023/11/21 06:17:07;;;;;;;;;;;;;;;5.27;84.81;99302.25;4990310;28;20666;-73
2023/11/21 06:19:32;;;;;;;;;;;;;;;5.41;84.38;99300.31;4987852;28;19972;-73
2023/11/21 06:21:58;;;;;;;;;;;;;;;5.02;84.65;99299.63;4989817;28;20293;-73
2023/11/21 06:24:23;;;;;;;;;;;;;;;4.66;88.33;99291.84;4987765;28;19961;-73
2023/11/21 06:26:48;;;;;;;;;;;;;;;5.04;87.16;99288.19;4975979;28;20372;-71
2023/11/21 06:29:13;;;;;;;;;;;;;;;5.27;86.22;99291.16;4987265;28;19987;-71
2023/11/21 06:31:40;;;;;;;;;;;;;;;5.01;86.15;99288.81;4989387;28;19917;-73
2023/11/21 06:34:06;;;;;;;;;;;;;;;5.32;85.84;99296.63;4988446;28;19941;-71
2023/11/21 06:36:31;;;;;;;;;;;;;;;5.66;85.07;99289.88;4984494;28;20406;-72
2023/11/21 06:38:56;;;;;;;;;;;;;;;5.86;84.15;99288.69;4989069;28;20477;-74
2023/11/21 06:41:22;;;;;;;;;;;;;;;5.71;83.70;99298.13;4977164;28;20297;-75
2023/11/21 06:43:47;;;;;;;;;;;;;;;5.51;85.00;99282.69;4971834;28;19958;-73
2023/11/21 06:46:16;;;;;;;;;;;;;;;5.42;86.08;99290.06;4974200;28;20396;-75
2023/11/21 06:48:45;;;;;;;;;;;;;;;5.48;86.29;99289.66;4981408;28;19918;-76
2023/11/21 06:51:10;;;;;;;;;;;;;;;5.65;85.35;99287.44;4991195;28;19930;-72
2023/11/21 06:53:36;;;;;;;;;;;;;;;5.91;84.13;99290.50;4988539;28;19922;-72
2023/11/21 06:56:02;;;;;;;;;;;;;;;5.76;84.61;99284.16;4982969;28;19971;-73
2023/11/21 06:58:27;;;;;;;;;;;;;;;5.86;84.08;99287.84;4989445;28;20393;-70
2023/11/21 07:00:52;;;;;;;;;;;;;;;5.86;83.74;99291.47;4992520;28;20004;-71
2023/11/21 07:03:18;;;;;;;;;;;;;;;5.79;85.05;99298.53;4993447;28;19924;-71
2023/11/21 07:05:44;;;;;;;;;;;;;;;5.86;84.49;99301.75;4987110;28;19917;-69
2023/11/21 07:08:09;;;;;;;;;;;;;;;5.84;84.15;99306.78;4991799;28;20029;-73
2023/11/21 07:10:36;;;;;;;;;;;;;;;5.43;88.04;99308.34;4990003;28;19918;-73
2023/11/21 07:13:01;;;;;;;;;;;;;;;5.29;89.23;99308.31;4994014;28;19925;-73
2023/11/21 07:15:27;;;;;;;;;;;;;;;5.24;89.43;99305.63;4993943;28;19914;-73
2023/11/21 07:17:53;;;;;;;;;;;;;;;5.32;89.97;99302.19;4992319;28;19914;-74
2023/11/21 07:20:19;;;;;;;;;;;;;;;5.10;90.37;99308.34;4990249;28;19917;-73
2023/11/21 07:22:45;;;;;;;;;;;;;;;5.31;89.92;99303.31;4989877;28;20106;-73
2023/11/21 07:25:10;;;;;;;;;;;;;;;5.51;88.73;99296.56;4992254;28;19925;-73
2023/11/21 07:27:37;;;;;;;;;;;;;;;5.73;87.08;99306.13;4987978;28;19925;-72
2023/11/21 07:30:06;;;;;;;;;;;;;;;6.04;86.75;99294.47;4993226;28;19929;-72
2023/11/21 07:32:31;;;;;;;;;;;;;;;6.40;85.21;99301.25;4989496;28;20052;-72
2023/11/21 07:34:59;;;;;;;;;;;;;;;6.48;83.35;99297.72;4990684;28;20004;-72
2023/11/21 07:37:24;;;;;;;;;;;;;;;6.40;83.02;99299.28;4988669;28;19917;-72
2023/11/21 07:39:54;;;;;;;;;;;;;;;6.37;83.17;99299.06;4985615;28;19917;-73
2023/11/21 07:42:19;;;;;;;;;;;;;;;6.23;83.46;99297.13;4989592;28;19944;-73
2023/11/21 07:44:46;;;;;;;;;;;;;;;6.18;85.88;99300.03;4988666;28;20005;-73
2023/11/21 07:47:11;;;;;;;;;;;;;;;6.29;84.57;99300.63;4989610;28;19986;-73
2023/11/21 07:49:36;;;;;;;;;;;;;;;6.65;83.20;99297.06;4989002;28;19953;-73
2023/11/21 07:52:02;;;;;;;;;;;;;;;6.92;82.23;99306.44;4992244;28;19937;-73
2023/11/21 07:54:27;;;;;;;;;;;;;;;7.13;80.18;99309.56;4988708;28;19918;-73
2023/11/21 07:56:53;;;;;;;;;;;;;;;6.85;80.17;99301.31;4987275;28;19922;-73
2023/11/21 07:59:18;;;;;;;;;;;;;;;6.98;81.31;99304.34;4989545;28;20024;-73
2023/11/21 08:01:45;;;;;;;;;;;;;;;7.18;81.27;99307.78;4988838;28;19929;-73
2023/11/21 08:04:10;;;;;;;;;;;;;;;7.40;80.24;99296.66;4989842;28;19918;-73
2023/11/21 08:06:35;;;;;;;;;;;;;;;7.55;78.83;99291.81;4992650;28;19914;-73
2023/11/21 08:09:01;;;;;;;;;;;;;;;7.23;79.67;99293.72;4992897;28;19917;-73
2023/11/21 08:11:29;;;;;;;;;;;;;;;7.54;79.44;99292.97;4990984;28;20686;-73
2023/11/21 08:13:54;;;;;;;;;;;;;;;7.66;79.36;99290.41;4992923;28;19980;-73
2023/11/21 08:16:20;;;;;;;;;;;;;;;7.55;79.16;99289.88;4992112;28;20023;-69
2023/11/21 08:18:45;;;;;;;;;;;;;;;7.47;78.29;99298.13;4973752;28;19925;-73
2023/11/21 08:21:12;;;;;;;;;;;;;;;7.67;78.16;99294.81;4979220;28;19914;-73
2023/11/21 08:23:37;;;;;;;;;;;;;;;7.93;78.07;99296.91;4990687;28;20020;-71
2023/11/21 08:26:05;;;;;;;;;;;;;;;8.08;77.77;99286.47;4991743;28;20020;-72
2023/11/21 08:28:30;;;;;;;;;;;;;;;8.25;76.39;99288.47;4991676;28;19948;-73
2023/11/21 08:30:55;;;;;;;;;;;;;;;8.44;76.23;99285.41;4992713;28;19969;-73
2023/11/21 08:33:21;;;;;;;;;;;;;;;8.64;74.88;99299.91;5010734;28;19960;-73
2023/11/21 08:35:46;;;;;;;;;;;;;;;8.72;74.15;99296.31;4990947;28;20505;-73
2023/11/21 08:38:13;;;;;;;;;;;;;;;8.39;75.76;99282.78;4992510;28;20423;-73
2023/11/21 08:40:38;;;;;;;;;;;;;;;8.54;75.11;99278.75;4991195;28;19913;-73
2023/11/21 08:43:08;;;;;;;;;;;;;;;8.56;74.78;99277.25;4991470;28;19918;-73
2023/11/21 08:45:34;;;;;;;;;;;;;;;8.91;73.46;99267.25;4989641;28;20415;-73
2023/11/21 08:47:59;;;;;;;;;;;;;;;9.37;72.51;99271.31;4989905;28;19972;-73
2023/11/21 08:50:25;;;;;;;;;;;;;;;9.54;70.05;99264.06;4989144;28;20351;-73
2023/11/21 08:52:51;;;;;;;;;;;;;;;9.32;70.52;99260.34;4990101;28;19952;-73
2023/11/21 08:55:16;;;;;;;;;;;;;;;9.61;68.99;99247.59;4990731;28;19976;-74
2023/11/21 08:57:44;;;;;;;;;;;;;;;9.71;67.44;99251.97;4988449;28;19922;-74
2023/11/21 09:00:15;;;;;;;;;;;;;;;9.64;67.78;99255.28;4989414;28;20329;-73
2023/11/21 09:02:41;;;;;;;;;;;;;;;9.61;68.03;99253.19;4987927;28;19914;-73
2023/11/21 09:05:08;;;;;;;;;;;;;;;9.59;67.06;99244.31;4988856;28;20012;-74
2023/11/21 09:07:34;;;;;;;;;;;;;;;9.50;66.87;99241.56;4987372;28;19972;-74
2023/11/21 09:09:59;;;;;;;;;;;;;;;9.79;66.62;99237.16;4988916;28;19949;-73
2023/11/21 09:12:24;;;;;;;;;;;;;;;9.72;68.40;99230.47;4989027;28;19928;-73
2023/11/21 09:14:50;;;;;;;;;;;;;;;10.10;66.30;99224.03;4989427;28;19967;-73
2023/11/21 09:17:16;;;;;;;;;;;;;;;10.19;66.00;99219.22;4989717;28;19918;-74
2023/11/21 09:19:43;;;;;;;;;;;;;;;9.83;66.42;99221.41;4990153;28;19945;-74
2023/11/21 09:22:09;;;;;;;;;;;;;;;10.03;65.86;99212.56;4986943;28;19926;-74
2023/11/21 09:24:34;;;;;;;;;;;;;;;10.01;66.48;99209.28;4990021;28;19925;-74
2023/11/21 09:27:02;;;;;;;;;;;;;;;10.08;65.04;99204.00;4991024;28;19969;-73
2023/11/21 09:29:28;;;;;;;;;;;;;;;9.90;66.30;99201.31;4990446;28;19968;-73
2023/11/21 09:31:54;;;;;;;;;;;;;;;9.90;66.01;99204.09;4989351;28;19968;-73
2023/11/21 09:34:20;;;;;;;;;;;;;;;10.06;65.40;99187.56;4989489;28;20392;-73
2023/11/21 09:36:45;;;;;;;;;;;;;;;9.97;65.88;99187.59;4982386;28;19933;-72
2023/11/21 09:39:11;;;;;;;;;;;;;;;9.78;66.19;99195.63;4984766;28;20029;-73
2023/11/21 09:41:39;;;;;;;;;;;;;;;9.60;65.88;99178.94;4987599;28;19925;-73
2023/11/21 09:44:11;;;;;;;;;;;;;;;10.15;65.15;99175.50;4984544;28;19925;-72
2023/11/21 09:46:39;;;;;;;;;;;;;;;10.38;64.71;99167.63;4986675;28;19934;-73
2023/11/21 09:49:08;;;;;;;;;;;;;;;10.65;64.30;99168.25;4987449;28;19953;-72
2023/11/21 09:51:38;;;;;;;;;;;;;;;10.90;63.18;99165.53;4982824;28;19939;-73
2023/11/21 09:54:08;;;;;;;;;;;;;;;10.89;63.27;99153.50;4985356;28;20041;-73
2023/11/21 09:56:35;;;;;;;;;;;;;;;10.66;61.96;99155.88;4988510;28;19945;-73
2023/11/21 09:59:04;;;;;;;;;;;;;;;10.83;62.66;99154.91;4990976;28;19961;-73
2023/11/21 10:01:31;;;;;;;;;;;;;;;10.61;62.92;99154.13;4988661;28;20305;-73
2023/11/21 10:03:56;;;;;;;;;;;;;;;10.57;62.45;99143.97;4988896;28;19918;-73
2023/11/21 10:06:23;;;;;;;;;;;;;;;11.09;61.71;99140.63;4989387;28;19995;-72
2023/11/21 10:08:50;;;;;;;;;;;;;;;11.27;60.01;99143.22;4986658;28;20396;-72
2023/11/21 10:11:17;;;;;;;;;;;;;;;11.51;59.27;99138.81;4986727;28;19925;-73
2023/11/21 10:13:45;;;;;;;;;;;;;;;11.76;58.79;99141.63;4983370;28;19921;-73
2023/11/21 10:16:14;;;;;;;;;;;;;;;11.70;57.85;99137.41;4989004;28;19924;-73
2023/11/21 10:18:40;;;;;;;;;;;;;;;11.71;57.45;99136.25;4985803;28;20399;-73
2023/11/21 10:21:06;;;;;;;;;;;;;;;11.79;57.92;99132.50;4988514;28;19914;-73
2023/11/21 10:23:31;;;;;;;;;;;;;;;11.84;57.65;99125.84;4989222;28;19928;-74
2023/11/21 10:25:59;;;;;;;;;;;;;;;12.26;56.70;99133.97;4988193;28;20385;-75
2023/11/21 10:28:24;;;;;;;;;;;;;;;12.49;56.76;99125.84;4987568;28;19920;-74
2023/11/21 10:30:49;;;;;;;;;;;;;;;12.62;56.31;99123.81;5009000;28;19921;-74
2023/11/21 10:33:15;;;;;;;;;;;;;;;12.63;56.22;99117.03;4988196;28;20008;-73
2023/11/21 10:35:48;;;;;;;;;;;;;;;11.99;56.61;99119.50;4986979;28;20028;-72
2023/11/21 10:38:14;;;;;;;;;;;;;;;12.07;56.59;99113.00;4987794;28;19913;-73
2023/11/21 10:40:41;;;;;;;;;;;;;;;12.17;57.70;99108.06;4988187;28;19968;-67
2023/11/21 10:43:08;;;;;;;;;;;;;;;11.98;57.79;99103.06;4982646;28;19922;-69
2023/11/21 10:45:34;;;;;;;;;;;;;;;12.20;57.14;99107.34;4983898;28;19921;-71
2023/11/21 10:47:59;;;;;;;;;;;;;;;12.35;56.96;99102.97;4984758;28;19922;-71
2023/11/21 10:50:25;;;;;;;;;;;;;;;12.41;55.75;99101.53;4987453;28;20001;-71
2023/11/21 10:52:51;;;;;;;;;;;;;;;12.54;55.38;99091.09;4987331;28;20316;-72
2023/11/21 10:55:18;;;;;;;;;;;;;;;12.58;56.09;99088.41;4986962;28;19952;-71
2023/11/21 10:57:44;;;;;;;;;;;;;;;12.58;55.07;99089.19;4986713;28;19933;-71
2023/11/21 11:00:13;;;;;;;;;;;;;;;12.71;55.00;99077.91;4985873;28;19972;-71
2023/11/21 11:02:39;;;;;;;;;;;;;;;12.68;54.81;99082.28;4983958;28;20416;-73
2023/11/21 11:05:06;;;;;;;;;;;;;;;12.62;55.24;99064.06;4988609;28;19921;-74
2023/11/21 11:07:34;;;;;;;;;;;;;;;12.58;53.88;99061.16;4984449;28;20348;-74
2023/11/21 11:10:00;;;;;;;;;;;;;;;12.48;54.68;99045.66;4986604;28;19918;-73
2023/11/21 11:12:25;;;;;;;;;;;;;;;12.54;54.54;99036.97;4987547;28;20455;-70
2023/11/21 11:14:51;;;;;;;;;;;;;;;12.40;55.77;99024.19;4984132;28;20072;-75
2023/11/21 11:17:16;;;;;;;;;;;;;;;12.23;56.15;99016.91;4984570;28;20377;-71
2023/11/21 11:19:42;;;;;;;;;;;;;;;12.13;56.52;98998.63;4980863;28;19929;-72
2023/11/21 11:22:15;;;;;;;;;;;;;;;11.99;57.15;98986.97;4987341;28;19918;-73
2023/11/21 11:24:46;;;;;;;;;;;;;;;12.05;57.78;98975.19;4991833;28;20006;-73
2023/11/21 11:27:22;;;;;;;;;;;;;;;12.03;57.58;98963.50;4991420;28;19921;-73
2023/11/21 11:29:51;;;;;;;;;;;;;;;11.83;58.08;98973.72;4993448;28;19949;-73
2023/11/21 11:32:27;;;;;;;;;;;;;;;11.75;58.48;98969.88;4995372;28;20312;-73
2023/11/21 11:35:16;;;;;;;;;;;;;;;11.71;57.72;98970.97;4981907;28;20345;-73
2023/11/21 11:37:42;;;;;;;;;;;;;;;11.76;58.95;98971.50;4974366;28;19918;-73
2023/11/21 11:40:08;;;;;;;;;;;;;;;11.77;59.23;98973.16;4986459;28;19921;-73
2023/11/21 11:42:34;;;;;;;;;;;;;;;11.51;59.40;98970.78;4993993;28;20305;-73
2023/11/21 11:44:59;;;;;;;;;;;;;;;11.54;59.74;98958.84;4995046;28;19921;-73
2023/11/21 11:47:27;;;;;;;;;;;;;;;11.58;60.62;98956.97;4993247;28;20483;-73
2023/11/21 11:50:12;;;;;;;;;;;;;;;11.56;60.96;98950.91;4987257;28;19980;-72
2023/11/21 11:52:39;;;;;;;;;;;;;;;11.44;61.11;98950.94;4989368;28;19964;-72
2023/11/21 11:55:06;;;;;;;;;;;;;;;11.52;61.80;98953.63;4977685;28;19975;-72
2023/11/21 11:57:32;;;;;;;;;;;;;;;11.62;61.35;98943.06;4991388;28;19926;-71
2023/11/21 12:00:11;;;;;;;;;;;;;;;11.70;61.98;98949.69;4994607;28;19929;-71
2023/11/21 12:02:37;;;;;;;;;;;;;;;11.88;61.20;98950.22;4991503;28;19922;-71
2023/11/21 12:05:10;;;;;;;;;;;;;;;11.97;61.33;98952.88;4990851;28;19976;-72
2023/11/21 12:07:54;;;;;;;;;;;;;;;11.86;61.03;98947.78;4992223;28;20335;-72
2023/11/21 12:10:24;;;;;;;;;;;;;;;11.85;60.70;98940.56;4994426;28;20423;-72
2023/11/21 12:12:56;;;;;;;;;;;;;;;11.85;60.79;98945.34;4993192;28;19918;-72
2023/11/21 12:15:21;;;;;;;;;;;;;;;12.02;59.79;98961.06;4994038;28;20389;-70
2023/11/21 12:17:48;;;;;;;;;;;;;;;12.12;59.23;98976.53;4992989;28;20316;-73
2023/11/21 12:20:15;;;;;;;;;;;;;;;12.06;59.11;98971.19;4994216;28;19997;-70
2023/11/21 12:22:49;;;;;;;;;;;;;;;12.04;58.23;98979.16;4992827;28;20001;-72
2023/11/21 12:25:16;;;;;;;;;;;;;;;12.25;59.57;98980.09;4978078;28;19957;-72
2023/11/21 12:27:42;;;;;;;;;;;;;;;11.94;59.40;98982.44;4974196;28;20378;-72
2023/11/21 12:30:13;;;;;;;;;;;;;;;12.17;59.13;98976.28;4991759;28;19917;-72
2023/11/21 12:32:38;;;;;;;;;;;;;;;12.39;57.94;98974.88;4992977;28;20355;-74
2023/11/21 12:35:06;;;;;;;;;;;;;;;12.60;57.98;98977.44;4992866;28;19914;-73
2023/11/21 12:37:31;;;;;;;;;;;;;;;12.74;56.07;98960.16;4990566;28;20316;-73
2023/11/21 12:39:57;;;;;;;;;;;;;;;12.56;56.71;98954.09;4988955;28;19918;-72
2023/11/21 12:42:23;;;;;;;;;;;;;;;12.58;56.38;98945.31;4990848;28;20520;-73
2023/11/21 12:44:49;;;;;;;;;;;;;;;12.67;55.49;98931.13;4993473;28;20012;-71
2023/11/21 12:47:16;;;;;;;;;;;;;;;12.82;54.75;98923.88;4992673;28;19918;-72
2023/11/21 12:49:44;;;;;;;;;;;;;;;12.96;54.82;98929.81;4992403;28;20320;-71